createdAt,value
2022-07-29T00:01:42.933Z,2.38
2022-07-29T00:04:10.602Z,2.40
2022-07-29T00:06:37.967Z,1.55
2022-07-29T00:09:05.669Z,1.88
2022-07-29T00:11:33.139Z,2.10
2022-07-29T00:14:00.463Z,3.00
2022-07-29T00:16:27.841Z,1.83
2022-07-29T00:18:55.141Z,1.55
2022-07-29T00:21:22.524Z,1.60
2022-07-29T00:23:49.832Z,2.00
2022-07-29T00:26:17.131Z,1.40
2022-07-29T00:28:44.464Z,1.25
2022-07-29T00:31:11.927Z,1.30
2022-07-29T00:33:39.319Z,1.48
2022-07-29T00:36:06.995Z,1.10
2022-07-29T00:38:34.386Z,1.40
2022-07-29T00:41:01.730Z,1.40
2022-07-29T00:43:29.046Z,1.70
2022-07-29T00:45:56.664Z,1.63
2022-07-29T00:48:24.068Z,1.10
2022-07-29T00:50:51.777Z,1.55
2022-07-29T00:53:21.155Z,1.40
2022-07-29T00:55:48.688Z,1.80
2022-07-29T00:58:16.233Z,1.40
2022-07-29T01:00:50.334Z,1.48
2022-07-29T01:03:17.794Z,1.60
2022-07-29T01:05:48.428Z,1.50
2022-07-29T01:08:20.077Z,1.43
2022-07-29T01:10:48.238Z,1.45
2022-07-29T01:13:17.078Z,1.80
2022-07-29T01:15:55.521Z,1.10
2022-07-29T01:18:34.995Z,2.00
2022-07-29T01:21:05.289Z,1.70
2022-07-29T01:24:01.186Z,1.85
2022-07-29T01:26:43.764Z,2.37
2022-07-29T01:29:19.793Z,1.77
2022-07-29T01:32:00.906Z,2.00
2022-07-29T01:34:31.128Z,1.60
2022-07-29T01:37:16.476Z,1.70
2022-07-29T01:39:47.173Z,2.42
2022-07-29T01:42:14.493Z,2.50
2022-07-29T01:45:11.858Z,2.00
2022-07-29T01:48:11.227Z,2.50
2022-07-29T01:51:04.835Z,2.40
2022-07-29T01:53:39.867Z,2.53
2022-07-29T01:56:11.699Z,2.78
2022-07-29T01:58:42.529Z,2.25
2022-07-29T02:01:12.019Z,2.25
2022-07-29T02:03:44.225Z,1.77
2022-07-29T02:06:13.633Z,1.85
2022-07-29T02:08:42.187Z,1.90
2022-07-29T02:11:10.018Z,1.65
2022-07-29T02:13:38.580Z,2.17
2022-07-29T02:16:09.644Z,1.55
2022-07-29T02:18:40.080Z,1.45
2022-07-29T02:21:15.114Z,1.48
2022-07-29T02:23:50.692Z,1.73
2022-07-29T02:26:21.501Z,1.40
2022-07-29T02:28:51.219Z,1.37
2022-07-29T02:31:21.844Z,1.02
2022-07-29T02:33:50.824Z,1.70
2022-07-29T02:36:18.726Z,1.50
2022-07-29T02:38:52.941Z,1.40
2022-07-29T02:41:27.392Z,1.15
2022-07-29T02:44:10.275Z,1.10
2022-07-29T02:46:42.657Z,1.10
2022-07-29T02:49:25.172Z,1.20
2022-07-29T02:51:58.236Z,1.00
2022-07-29T02:54:47.001Z,1.20
2022-07-29T02:57:54.061Z,1.10
2022-07-29T03:00:28.966Z,1.00
2022-07-29T03:02:59.575Z,1.10
2022-07-29T03:05:27.923Z,0.80
2022-07-29T03:08:04.145Z,0.90
2022-07-29T03:10:33.776Z,1.00
2022-07-29T03:13:01.926Z,1.25
2022-07-29T03:15:30.336Z,1.30
2022-07-29T03:17:59.281Z,1.10
2022-07-29T03:20:27.156Z,1.30
2022-07-29T03:22:54.551Z,1.30
2022-07-29T03:25:21.994Z,1.10
2022-07-29T03:27:49.774Z,1.10
2022-07-29T03:30:21.769Z,1.52
2022-07-29T03:32:52.233Z,1.88
2022-07-29T03:35:21.044Z,1.38
2022-07-29T03:37:48.800Z,1.20
2022-07-29T03:40:22.448Z,1.63
2022-07-29T03:42:52.792Z,1.90
2022-07-29T03:45:20.705Z,1.40
2022-07-29T03:47:55.908Z,2.13
2022-07-29T03:50:28.188Z,1.40
2022-07-29T03:52:55.694Z,1.30
2022-07-29T03:55:23.380Z,1.25
2022-07-29T03:57:51.528Z,1.55
2022-07-29T04:00:19.044Z,1.20
2022-07-29T04:02:49.666Z,1.10
2022-07-29T04:05:18.870Z,1.00
2022-07-29T04:07:48.123Z,1.15
2022-07-29T04:10:30.299Z,1.00
2022-07-29T04:13:00.711Z,1.10
2022-07-29T04:15:31.211Z,1.20
2022-07-29T04:17:59.941Z,2.10
2022-07-29T04:20:27.393Z,2.83
2022-07-29T04:22:54.730Z,1.35
2022-07-29T04:25:22.124Z,1.90
2022-07-29T04:28:01.440Z,1.25
2022-07-29T04:30:29.201Z,1.30
2022-07-29T04:32:56.651Z,1.75
2022-07-29T04:35:24.023Z,2.38
2022-07-29T04:37:51.345Z,1.65
2022-07-29T04:40:18.703Z,1.80
2022-07-29T04:42:46.881Z,1.63
2022-07-29T04:45:16.150Z,2.13
2022-07-29T04:47:43.653Z,2.50
2022-07-29T04:50:11.546Z,1.70
2022-07-29T04:52:38.981Z,2.05
2022-07-29T04:55:07.196Z,2.23
2022-07-29T04:57:34.546Z,1.60
2022-07-29T05:00:02.039Z,2.33
2022-07-29T05:02:29.374Z,1.42
2022-07-29T05:04:56.779Z,1.35
2022-07-29T05:07:25.075Z,1.50
2022-07-29T05:09:52.385Z,1.70
2022-07-29T05:12:19.755Z,1.30
2022-07-29T05:14:47.047Z,1.70
2022-07-29T05:17:14.372Z,1.30
2022-07-29T05:19:41.664Z,1.90
2022-07-29T05:22:08.999Z,1.30
2022-07-29T05:24:36.377Z,1.40
2022-07-29T05:27:03.720Z,1.30
2022-07-29T05:29:44.126Z,1.40
2022-07-29T05:32:14.268Z,1.40
2022-07-29T05:34:50.938Z,1.17
2022-07-29T05:37:21.819Z,1.20
2022-07-29T05:39:56.897Z,1.30
2022-07-29T05:42:25.900Z,1.10
2022-07-29T05:44:53.810Z,1.23
2022-07-29T05:47:21.623Z,1.45
2022-07-29T05:49:49.562Z,1.50
2022-07-29T05:52:16.916Z,1.77
2022-07-29T05:54:45.413Z,1.88
2022-07-29T05:57:23.620Z,1.40
2022-07-29T05:59:52.034Z,1.30
2022-07-29T06:02:19.901Z,1.98
2022-07-29T06:04:47.251Z,1.98
2022-07-29T06:07:14.670Z,1.77
2022-07-29T06:09:42.009Z,1.47
2022-07-29T06:12:09.797Z,2.10
2022-07-29T06:14:38.919Z,1.30
2022-07-29T06:17:06.749Z,1.48
2022-07-29T06:19:37.487Z,1.58
2022-07-29T06:22:05.408Z,1.35
2022-07-29T06:24:32.724Z,1.50
2022-07-29T06:27:00.134Z,1.63
2022-07-29T06:29:27.447Z,1.73
2022-07-29T06:31:54.722Z,2.07
2022-07-29T06:34:22.111Z,2.60
2022-07-29T06:36:50.725Z,2.35
2022-07-29T06:39:18.427Z,1.55
2022-07-29T06:41:49.986Z,1.88
2022-07-29T06:44:19.127Z,1.75
2022-07-29T06:46:50.171Z,1.80
2022-07-29T06:49:17.651Z,1.60
2022-07-29T06:51:45.075Z,2.00
2022-07-29T06:54:12.425Z,1.70
2022-07-29T06:56:42.659Z,1.90
2022-07-29T06:59:11.807Z,1.45
2022-07-29T07:01:41.899Z,2.90
2022-07-29T07:04:10.039Z,3.57
2022-07-29T07:06:38.796Z,2.73
2022-07-29T07:09:06.163Z,1.80
2022-07-29T07:11:33.604Z,4.95
2022-07-29T07:14:03.922Z,2.38
2022-07-29T07:16:32.492Z,3.00
2022-07-29T07:19:09.417Z,2.42
2022-07-29T07:21:36.827Z,2.10
2022-07-29T07:24:04.420Z,2.20
2022-07-29T07:26:44.096Z,2.20
2022-07-29T07:29:12.437Z,2.13
2022-07-29T07:31:40.016Z,2.10
2022-07-29T07:34:07.421Z,1.95
2022-07-29T07:36:34.904Z,2.07
2022-07-29T07:39:02.418Z,2.20
2022-07-29T07:41:32.409Z,2.42
2022-07-29T07:44:00.342Z,2.75
2022-07-29T07:46:27.636Z,2.78
2022-07-29T07:48:55.503Z,4.40
2022-07-29T07:51:22.832Z,3.03
2022-07-29T07:53:53.063Z,9.75
2022-07-29T07:56:21.179Z,7.68
2022-07-29T07:58:50.138Z,8.87
2022-07-29T08:01:20.061Z,7.03
2022-07-29T08:03:47.798Z,6.47
2022-07-29T08:06:15.200Z,10.50
2022-07-29T08:08:43.629Z,2.97
2022-07-29T08:11:11.065Z,2.97
2022-07-29T08:13:39.544Z,3.43
2022-07-29T08:16:16.022Z,4.93
2022-07-29T08:18:44.910Z,6.07
2022-07-29T08:21:15.077Z,3.65
2022-07-29T08:23:59.765Z,4.05
2022-07-29T08:26:28.300Z,4.47
2022-07-29T08:28:55.703Z,4.68
2022-07-29T08:31:23.283Z,3.53
2022-07-29T08:33:50.804Z,3.28
2022-07-29T08:36:18.173Z,5.40
2022-07-29T08:38:45.488Z,5.82
2022-07-29T08:41:14.710Z,6.80
2022-07-29T08:43:42.872Z,7.30
2022-07-29T08:46:12.623Z,4.28
2022-07-29T08:48:41.994Z,4.70
2022-07-29T08:51:20.345Z,3.22
2022-07-29T08:53:49.383Z,3.47
2022-07-29T08:56:19.079Z,3.30
2022-07-29T08:58:52.051Z,3.83
2022-07-29T09:01:34.999Z,3.55
2022-07-29T09:04:06.880Z,3.08
2022-07-29T09:06:40.425Z,2.10
2022-07-29T09:09:09.354Z,2.58
2022-07-29T09:11:36.881Z,2.90
2022-07-29T09:14:04.279Z,1.90
2022-07-29T09:17:02.032Z,2.00
2022-07-29T09:19:37.861Z,1.88
2022-07-29T09:22:07.817Z,2.45
2022-07-29T09:24:48.424Z,1.73
2022-07-29T09:27:26.895Z,2.47
2022-07-29T09:30:07.584Z,1.98
2022-07-29T09:32:54.797Z,1.65
2022-07-29T09:35:25.097Z,1.60
2022-07-29T09:37:52.893Z,1.57
2022-07-29T09:40:26.471Z,1.67
2022-07-29T09:42:58.008Z,2.10
2022-07-29T09:45:33.464Z,1.95
2022-07-29T09:48:14.415Z,1.77
2022-07-29T09:50:43.577Z,1.63
2022-07-29T09:53:11.973Z,1.90
2022-07-29T09:55:53.097Z,1.63
2022-07-29T09:58:23.527Z,1.58
2022-07-29T10:00:53.837Z,1.60
2022-07-29T10:03:21.397Z,1.25
2022-07-29T10:06:06.457Z,1.73
2022-07-29T10:08:33.836Z,1.40
2022-07-29T10:11:18.336Z,1.48
2022-07-29T10:13:47.635Z,1.50
2022-07-29T10:16:17.096Z,2.00
2022-07-29T10:18:45.355Z,1.58
2022-07-29T10:21:22.448Z,2.05
2022-07-29T10:24:02.133Z,2.17
2022-07-29T10:26:31.449Z,2.40
2022-07-29T10:28:58.814Z,2.25
2022-07-29T10:31:36.416Z,2.33
2022-07-29T10:34:14.761Z,2.90
2022-07-29T10:36:45.092Z,4.70
2022-07-29T10:39:41.546Z,4.47
2022-07-29T10:42:33.321Z,6.53
2022-07-29T10:45:04.334Z,7.17
2022-07-29T10:47:32.240Z,5.40
2022-07-29T10:50:01.311Z,6.20
2022-07-29T10:52:59.720Z,5.65
2022-07-29T10:55:43.677Z,7.43
2022-07-29T10:58:20.152Z,6.45
2022-07-29T11:00:57.659Z,8.13
2022-07-29T11:03:50.461Z,8.02
2022-07-29T11:06:26.140Z,5.88
2022-07-29T11:09:18.196Z,6.90
2022-07-29T11:11:58.188Z,6.15
2022-07-29T11:15:02.507Z,6.20
2022-07-29T11:17:47.057Z,6.75
2022-07-29T11:20:32.623Z,4.95
2022-07-29T11:23:00.469Z,4.18
2022-07-29T11:25:42.958Z,3.33
2022-07-29T11:28:22.978Z,3.55
2022-07-29T11:30:54.178Z,3.42
2022-07-29T11:33:54.037Z,4.63
2022-07-29T11:36:19.499Z,3.40
2022-07-29T11:39:36.609Z,4.65
2022-07-29T11:42:30.478Z,3.85
2022-07-29T11:45:42.733Z,3.75
2022-07-29T11:48:29.366Z,3.22
2022-07-29T11:50:49.987Z,4.78
2022-07-29T11:53:17.337Z,4.47
2022-07-29T11:55:51.870Z,5.30
2022-07-29T11:58:26.009Z,5.68
2022-07-29T12:00:55.483Z,5.23
2022-07-29T12:03:32.952Z,6.18
2022-07-29T12:06:04.033Z,5.13
2022-07-29T12:08:40.368Z,7.97
2022-07-29T12:11:17.699Z,7.03
2022-07-29T12:13:49.253Z,6.43
2022-07-29T12:16:29.197Z,4.43
2022-07-29T12:19:02.407Z,3.33
2022-07-29T12:21:53.774Z,4.38
2022-07-29T12:24:26.883Z,5.43
2022-07-29T12:26:56.774Z,4.70
2022-07-29T12:29:33.547Z,5.60
2022-07-29T12:32:02.470Z,4.65
2022-07-29T12:34:30.586Z,4.47
2022-07-29T12:36:58.132Z,4.10
2022-07-29T12:39:28.875Z,4.20
2022-07-29T12:42:04.371Z,3.95
2022-07-29T12:44:46.538Z,4.35
2022-07-29T12:47:14.060Z,5.65
2022-07-29T12:49:42.127Z,4.20
2022-07-29T12:52:33.810Z,4.55
2022-07-29T12:55:01.897Z,3.80
2022-07-29T12:57:29.546Z,4.28
2022-07-29T13:00:12.102Z,3.90
2022-07-29T13:02:41.812Z,3.80
2022-07-29T13:05:11.005Z,3.33
2022-07-29T13:07:57.076Z,3.50
2022-07-29T13:10:26.016Z,2.90
2022-07-29T13:13:02.958Z,2.53
2022-07-29T13:15:30.699Z,3.60
2022-07-29T13:17:59.037Z,3.73
2022-07-29T13:20:30.522Z,2.92
2022-07-29T13:23:00.188Z,3.08
2022-07-29T13:25:33.088Z,3.10
2022-07-29T13:28:00.956Z,3.28
2022-07-29T13:30:28.361Z,3.22
2022-07-29T13:32:56.164Z,2.97
2022-07-29T13:35:23.457Z,2.60
2022-07-29T13:37:51.957Z,2.58
2022-07-29T13:40:19.321Z,1.92
2022-07-29T13:42:46.722Z,2.50
2022-07-29T13:45:14.577Z,2.70
2022-07-29T13:47:47.454Z,2.40
2022-07-29T13:50:16.780Z,2.70
2022-07-29T13:52:44.157Z,2.17
2022-07-29T13:55:11.596Z,2.28
2022-07-29T13:57:38.908Z,2.20
2022-07-29T14:00:07.540Z,2.95
2022-07-29T14:02:34.974Z,2.60
2022-07-29T14:05:08.137Z,2.47
2022-07-29T14:07:36.015Z,2.30
2022-07-29T14:10:05.200Z,2.77
2022-07-29T14:12:32.652Z,2.60
2022-07-29T14:14:59.980Z,2.15
2022-07-29T14:17:27.330Z,2.10
2022-07-29T14:19:54.642Z,2.58
2022-07-29T14:22:24.615Z,2.47
2022-07-29T14:24:53.394Z,2.53
2022-07-29T14:27:20.698Z,2.37
2022-07-29T14:30:06.729Z,2.45
2022-07-29T14:32:34.028Z,2.30
2022-07-29T14:35:01.394Z,2.67
2022-07-29T14:37:28.772Z,2.13
2022-07-29T14:40:08.089Z,2.25
2022-07-29T14:42:35.537Z,1.77
2022-07-29T14:45:02.907Z,2.20
2022-07-29T14:47:30.756Z,2.80
2022-07-29T14:49:58.033Z,1.92
2022-07-29T14:52:25.358Z,1.88
2022-07-29T14:54:52.669Z,1.83
2022-07-29T14:57:20.087Z,1.90
2022-07-29T14:59:47.397Z,1.60
2022-07-29T15:02:14.769Z,2.00
2022-07-29T15:04:42.161Z,1.90
2022-07-29T15:07:09.519Z,1.60
2022-07-29T15:09:40.298Z,1.85
2022-07-29T15:12:17.340Z,1.50
2022-07-29T15:14:44.855Z,1.73
2022-07-29T15:17:12.193Z,1.90
2022-07-29T15:19:39.841Z,2.20
2022-07-29T15:22:15.683Z,1.83
2022-07-29T15:24:43.056Z,2.40
2022-07-29T15:27:14.996Z,1.80
2022-07-29T15:29:43.068Z,2.08
2022-07-29T15:32:11.261Z,2.00
2022-07-29T15:34:39.067Z,1.92
2022-07-29T15:37:06.701Z,1.93
2022-07-29T15:39:34.089Z,1.80
2022-07-29T15:42:01.705Z,2.00
2022-07-29T15:44:29.219Z,1.90
2022-07-29T15:47:08.437Z,2.05
2022-07-29T15:49:47.243Z,2.63
2022-07-29T15:52:25.155Z,2.55
2022-07-29T15:54:58.022Z,2.40
2022-07-29T15:57:25.905Z,2.20
2022-07-29T15:59:53.428Z,2.25
2022-07-29T16:02:21.141Z,2.60
2022-07-29T16:04:48.534Z,2.50
2022-07-29T16:07:16.118Z,2.33
2022-07-29T16:09:44.387Z,2.08
2022-07-29T16:12:16.772Z,2.72
2022-07-29T16:14:44.665Z,2.28
2022-07-29T16:17:14.526Z,2.53
2022-07-29T16:19:46.106Z,1.95
2022-07-29T16:22:13.802Z,1.60
2022-07-29T16:24:41.764Z,1.80
2022-07-29T16:27:09.195Z,2.08
2022-07-29T16:29:37.437Z,1.73
2022-07-29T16:32:06.587Z,2.10
2022-07-29T16:34:34.307Z,1.73
2022-07-29T16:37:02.067Z,1.75
2022-07-29T16:39:29.819Z,1.80
2022-07-29T16:42:00.496Z,1.95
2022-07-29T16:44:28.912Z,1.88
2022-07-29T16:46:58.813Z,1.33
2022-07-29T16:49:27.028Z,1.60
2022-07-29T16:51:54.375Z,1.73
2022-07-29T16:54:21.698Z,1.95
2022-07-29T16:56:49.157Z,2.25
2022-07-29T16:59:16.486Z,1.55
2022-07-29T17:01:43.875Z,1.77
2022-07-29T17:04:12.062Z,3.00
2022-07-29T17:06:40.683Z,2.37
2022-07-29T17:09:10.323Z,2.15
2022-07-29T17:11:54.049Z,3.28
2022-07-29T17:14:27.001Z,2.17
2022-07-29T17:17:01.380Z,2.28
2022-07-29T17:19:31.383Z,2.30
2022-07-29T17:22:08.945Z,3.00
2022-07-29T17:24:39.041Z,2.00
2022-07-29T17:27:09.140Z,2.72
2022-07-29T17:29:36.838Z,1.90
2022-07-29T17:32:04.703Z,1.70
2022-07-29T17:34:39.847Z,1.85
2022-07-29T17:37:09.430Z,1.70
2022-07-29T17:39:41.370Z,1.60
2022-07-29T17:42:10.333Z,1.60
2022-07-29T17:44:38.503Z,1.80
2022-07-29T17:47:07.946Z,1.67
2022-07-29T17:49:43.830Z,1.73
2022-07-29T17:52:11.506Z,1.52
2022-07-29T17:54:38.830Z,1.67
2022-07-29T17:57:06.218Z,1.75
2022-07-29T17:59:33.640Z,1.77
2022-07-29T18:02:01.283Z,1.50
2022-07-29T18:04:30.977Z,1.95
2022-07-29T18:06:58.630Z,4.45
2022-07-29T18:09:26.170Z,5.17
2022-07-29T18:11:53.518Z,2.60
2022-07-29T18:14:20.803Z,2.22
2022-07-29T18:16:48.435Z,1.55
2022-07-29T18:19:16.419Z,1.50
2022-07-29T18:21:51.914Z,1.80
2022-07-29T18:24:25.689Z,1.75
2022-07-29T18:26:53.551Z,1.60
2022-07-29T18:29:21.829Z,1.40
2022-07-29T18:31:49.225Z,2.25
2022-07-29T18:34:17.138Z,1.80
2022-07-29T18:36:45.975Z,1.20
2022-07-29T18:39:20.573Z,1.90
2022-07-29T18:41:51.803Z,1.88
2022-07-29T18:44:21.670Z,1.50
2022-07-29T18:46:50.112Z,2.28
2022-07-29T18:49:17.629Z,1.70
2022-07-29T18:51:44.977Z,2.40
2022-07-29T18:54:12.321Z,2.00
2022-07-29T18:56:39.708Z,1.90
2022-07-29T18:59:07.060Z,1.38
2022-07-29T19:01:34.426Z,1.40
2022-07-29T19:04:01.867Z,1.75
2022-07-29T19:06:29.195Z,1.80
2022-07-29T19:08:56.766Z,1.45
2022-07-29T19:11:24.078Z,1.45
2022-07-29T19:13:51.504Z,1.35
2022-07-29T19:16:18.950Z,2.00
2022-07-29T19:18:47.530Z,1.80
2022-07-29T19:21:14.868Z,1.98
2022-07-29T19:24:00.216Z,1.38
2022-07-29T19:26:36.649Z,1.50
2022-07-29T19:29:04.727Z,2.67
2022-07-29T19:31:32.115Z,1.40
2022-07-29T19:33:59.556Z,1.30
2022-07-29T19:36:27.444Z,1.23
2022-07-29T19:38:54.831Z,1.20
2022-07-29T19:41:25.076Z,1.10
2022-07-29T19:43:53.307Z,1.02
2022-07-29T19:46:22.345Z,1.02
2022-07-29T19:48:50.354Z,0.82
2022-07-29T19:51:18.688Z,0.85
2022-07-29T19:53:47.509Z,1.10
2022-07-29T19:56:15.424Z,1.07
2022-07-29T19:58:44.185Z,1.50
2022-07-29T20:01:13.538Z,1.10
2022-07-29T20:03:40.966Z,1.00
2022-07-29T20:06:08.591Z,0.88
2022-07-29T20:08:36.264Z,1.00
2022-07-29T20:11:03.673Z,1.08
2022-07-29T20:13:33.152Z,1.07
2022-07-29T20:16:01.992Z,1.27
2022-07-29T20:18:29.441Z,1.10
2022-07-29T20:20:57.635Z,1.00
2022-07-29T20:23:25.065Z,1.00
2022-07-29T20:25:52.410Z,0.90
2022-07-29T20:28:21.441Z,1.02
2022-07-29T20:30:48.783Z,1.00
2022-07-29T20:33:16.550Z,1.10
2022-07-29T20:35:43.846Z,1.10
2022-07-29T20:38:13.953Z,1.17
2022-07-29T20:40:45.403Z,1.10
2022-07-29T20:43:12.763Z,1.02
2022-07-29T20:45:40.122Z,1.03
2022-07-29T20:48:08.317Z,1.20
2022-07-29T20:50:35.986Z,1.10
2022-07-29T20:53:04.190Z,1.10
2022-07-29T20:55:32.524Z,1.05
2022-07-29T20:58:00.274Z,1.10
2022-07-29T21:00:28.877Z,1.10
2022-07-29T21:02:56.239Z,1.20
2022-07-29T21:05:24.072Z,1.10
2022-07-29T21:07:55.427Z,1.00
2022-07-29T21:10:25.919Z,0.90
2022-07-29T21:12:53.242Z,1.00
2022-07-29T21:15:21.891Z,0.90
2022-07-29T21:17:49.505Z,0.93
2022-07-29T21:20:18.948Z,2.00
2022-07-29T21:22:46.522Z,0.85
2022-07-29T21:25:14.116Z,1.08
2022-07-29T21:28:00.007Z,1.00
2022-07-29T21:30:27.502Z,0.90
2022-07-29T21:32:54.842Z,1.10
2022-07-29T21:35:35.816Z,1.00
2022-07-29T21:38:09.591Z,1.10
2022-07-29T21:40:37.027Z,0.90
2022-07-29T21:43:04.512Z,0.90
2022-07-29T21:45:31.952Z,0.93
2022-07-29T21:47:59.560Z,1.02
2022-07-29T21:50:26.946Z,0.82
2022-07-29T21:52:54.303Z,0.90
2022-07-29T21:55:23.128Z,1.00
2022-07-29T21:57:54.224Z,1.40
2022-07-29T22:00:25.532Z,1.25
2022-07-29T22:02:53.573Z,1.20
2022-07-29T22:05:21.781Z,1.00
2022-07-29T22:07:56.343Z,1.15
2022-07-29T22:10:29.138Z,0.95
2022-07-29T22:12:58.284Z,1.00
2022-07-29T22:15:27.926Z,1.05
2022-07-29T22:17:55.339Z,0.93
2022-07-29T22:20:22.979Z,0.90
2022-07-29T22:22:50.272Z,0.80
2022-07-29T22:25:17.893Z,0.98
2022-07-29T22:27:45.489Z,1.00
2022-07-29T22:30:14.005Z,1.52
2022-07-29T22:32:41.425Z,1.20
2022-07-29T22:35:09.141Z,1.00
2022-07-29T22:37:36.477Z,1.08
2022-07-29T22:40:05.148Z,2.40
2022-07-29T22:42:33.849Z,3.77
2022-07-29T22:45:01.369Z,2.80
2022-07-29T22:47:38.847Z,1.63
2022-07-29T22:50:15.845Z,1.38
2022-07-29T22:52:43.132Z,1.30
2022-07-29T22:55:10.598Z,1.40
2022-07-29T22:57:37.949Z,1.63
2022-07-29T23:00:07.151Z,1.50
2022-07-29T23:02:36.276Z,1.55
2022-07-29T23:05:04.388Z,1.67
2022-07-29T23:07:33.986Z,1.77
2022-07-29T23:10:01.772Z,1.60
2022-07-29T23:12:29.058Z,1.80
2022-07-29T23:14:56.385Z,1.52
2022-07-29T23:17:23.776Z,2.03
2022-07-29T23:19:51.163Z,1.35
2022-07-29T23:22:18.597Z,2.28
2022-07-29T23:24:46.039Z,2.20
2022-07-29T23:27:13.331Z,1.67
2022-07-29T23:29:40.904Z,1.60
2022-07-29T23:32:08.242Z,1.60
2022-07-29T23:34:35.567Z,2.10
2022-07-29T23:37:03.185Z,2.75
2022-07-29T23:39:30.813Z,1.83
2022-07-29T23:41:58.166Z,1.70
2022-07-29T23:44:25.496Z,2.33
2022-07-29T23:46:52.784Z,1.75
2022-07-29T23:49:20.082Z,1.92
2022-07-29T23:51:47.413Z,1.30
2022-07-29T23:54:14.684Z,1.30
2022-07-29T23:56:42.008Z,1.80
2022-07-29T23:59:09.337Z,1.40
